Airfield :
LOGIN :

Register | Disclaimer

   EN    FR    IT 

 










Legend :    VFR   Marginal VFR   IFR   Intensive IFR   Very Intensive IFR
Visi :
Ceiling :
>= 8 km
>= 3000ft
5 to 8 km
1000 to 3000 ft
1500m to 5 km
500 to 1000 ft
800 to 1500m
200 to 500 ft
< 800m
< 200 ft
Symbols :   Thunderstorms  Fog  Heavy snow  Heavy precipitations  Wind > 20 kt
SIGMETs :     Misc.  Thunderstorms  Icing  Turbulence  Mountain Waves  Volcanic Ashes







- Airport Elevation : 147 ft
- IATA code : DUS


EDDL - Düsseldorf Int.

CURRENT METAR :
  • 231520Z 28015G25KT 240V300 9999 OVC024 14/09 Q1022 TEMPO 25015G25KT

EXPIRED METARs :
  • 231450Z 28012KT 9999 OVC025 14/09 Q1022 TEMPO 25015G25KT
  • 231420Z 25014KT 9999 OVC026 14/08 Q1022 TEMPO 25015G25KT
  • 231350Z 26013KT 9999 OVC026 14/08 Q1022 TEMPO 25015G25KT
  • 231320Z 26012KT 9999 BKN025 14/08 Q1022 TEMPO 25015G25KT
  • 231250Z 25012KT 9999 BKN024 13/08 Q1022 BECMG 25015G25KT

TAF TAF EDDL
Valid from the 23 at 12:00 until the 24 at 18:00 UTC


231100Z 2312/2418 26015G25KT 9999 BKN020
BECMG 2316/2318 29012KT
BECMG 2320/2323 BKN012
TEMPO 2322/2409 BKN007
PROB30
TEMPO 2401/2408 29015G25KT 4000 DZ
BECMG 2409/2412 BKN025
No reported NOTAMs for that airfield.



MET'MAP, your aeronautical weather chart ! - Copyright ORBIFLY December 2007 - Disclaimer

ORBIFLY MET'MAP TEAM :

Programming & Development : Alexandra Zaïnal
Concept & Development : Baudouin d'Aumeries
Co-Development & Prog : Marc-Olivier Méhu
Technical & hardware support : Manuel Goepfert

Contact : metmap@orbifly.com




SOURCES & CREDITS :

   NOAA